Time;durP1;ratioP1;P1;durP2;ratioP2;P2;SDS_P1;SDS_P2;PMS_P1;PMS_P2;Temp;Humidity;BMP_temperature;BMP_pressure;BME280_temperature;BME280_humidity;BME280_pressure;Samples;Min_cycle;Max_cycle;Signal;HPM_P1;HPM_P2
2023/04/25 00:01:23;;;;;;;;;;;;;;;10.63;100.00;99333.09;5590367;31;35223;-72
2023/04/25 00:04:27;;;;;;;;;;;;;;;10.69;100.00;99331.50;5590529;31;34417;-73
2023/04/25 00:07:29;;;;;;;;;;;;;;;10.72;100.00;99326.62;5590477;31;34585;-72
2023/04/25 00:10:32;;;;;;;;;;;;;;;10.80;100.00;99329.13;5590491;31;35007;-72
2023/04/25 00:13:41;;;;;;;;;;;;;;;10.81;100.00;99330.78;5590430;31;34002;-73
2023/04/25 00:16:44;;;;;;;;;;;;;;;10.84;100.00;99327.72;5576387;31;35016;-73
2023/04/25 00:19:47;;;;;;;;;;;;;;;10.86;100.00;99325.69;5590308;31;35098;-72
2023/04/25 00:22:50;;;;;;;;;;;;;;;10.93;100.00;99322.28;5590595;31;34327;-69
2023/04/25 00:25:53;;;;;;;;;;;;;;;10.92;100.00;99316.13;5590284;31;35028;-71
2023/04/25 00:28:55;;;;;;;;;;;;;;;10.97;100.00;99323.50;5590189;31;35125;-71
2023/04/25 00:31:57;;;;;;;;;;;;;;;10.92;100.00;99324.09;5576462;31;35025;-72
2023/04/25 00:35:01;;;;;;;;;;;;;;;10.87;100.00;99315.91;5576787;31;34392;-73
2023/04/25 00:38:03;;;;;;;;;;;;;;;10.90;100.00;99323.47;5590152;31;34488;-73
2023/04/25 00:41:07;;;;;;;;;;;;;;;10.90;100.00;99312.84;5590111;31;34447;-74
2023/04/25 00:44:11;;;;;;;;;;;;;;;10.88;100.00;99307.75;5590397;31;34663;-72
2023/04/25 00:47:14;;;;;;;;;;;;;;;10.95;100.00;99304.31;5589975;31;34436;-72
2023/04/25 00:50:17;;;;;;;;;;;;;;;10.93;100.00;99303.69;5590311;31;34551;-72
2023/04/25 00:53:23;;;;;;;;;;;;;;;10.92;100.00;99300.22;5589996;31;34502;-73
2023/04/25 00:56:25;;;;;;;;;;;;;;;10.86;100.00;99301.00;5589926;31;34532;-71
2023/04/25 00:59:29;;;;;;;;;;;;;;;10.89;100.00;99304.06;5589848;31;35217;-68
2023/04/25 01:02:32;;;;;;;;;;;;;;;10.85;100.00;99302.81;5589871;31;35128;-72
2023/04/25 01:05:35;;;;;;;;;;;;;;;10.87;100.00;99298.16;5576359;31;34301;-71
2023/04/25 01:08:38;;;;;;;;;;;;;;;10.82;100.00;99279.34;5576086;31;35091;-71
2023/04/25 01:11:42;;;;;;;;;;;;;;;10.90;100.00;99284.47;5589879;31;34401;-71
2023/04/25 01:14:44;;;;;;;;;;;;;;;10.86;100.00;99280.59;5576056;31;35174;-70
2023/04/25 01:17:49;;;;;;;;;;;;;;;10.81;100.00;99263.63;5589758;31;34343;-71
2023/04/25 01:20:52;;;;;;;;;;;;;;;10.80;100.00;99267.28;5576176;31;34451;-68
2023/04/25 01:23:55;;;;;;;;;;;;;;;10.83;100.00;99266.91;5589679;31;34556;-73
2023/04/25 01:26:58;;;;;;;;;;;;;;;10.78;100.00;99264.84;5588783;31;34569;-71
2023/04/25 01:30:01;;;;;;;;;;;;;;;10.71;100.00;99277.25;5589692;31;34415;-70
2023/04/25 01:33:05;;;;;;;;;;;;;;;10.77;100.00;99271.16;5590121;31;34463;-72
2023/04/25 01:36:08;;;;;;;;;;;;;;;10.78;100.00;99279.94;5589694;31;34210;-72
2023/04/25 01:39:10;;;;;;;;;;;;;;;10.65;100.00;99266.63;5590053;31;34456;-72
2023/04/25 01:42:13;;;;;;;;;;;;;;;10.68;100.00;99269.69;5589893;31;34475;-71
2023/04/25 01:45:16;;;;;;;;;;;;;;;10.59;100.00;99275.34;5589543;31;35038;-69
2023/04/25 01:48:19;;;;;;;;;;;;;;;10.60;100.00;99261.87;5589749;31;34374;-72
2023/04/25 01:51:21;;;;;;;;;;;;;;;10.54;100.00;99280.41;5589746;31;34547;-72
2023/04/25 01:54:24;;;;;;;;;;;;;;;10.49;100.00;99273.03;5589521;31;35037;-72
2023/04/25 01:57:27;;;;;;;;;;;;;;;10.47;100.00;99267.09;5589398;31;34372;-70
2023/04/25 02:00:30;;;;;;;;;;;;;;;10.50;100.00;99269.37;5589324;31;34724;-69
2023/04/25 02:03:34;;;;;;;;;;;;;;;10.50;100.00;99264.06;5589325;31;34518;-69
2023/04/25 02:06:37;;;;;;;;;;;;;;;10.51;100.00;99267.50;5575620;31;34510;-72
2023/04/25 02:09:41;;;;;;;;;;;;;;;10.55;100.00;99266.12;5589376;31;35112;-71
2023/04/25 02:12:46;;;;;;;;;;;;;;;10.54;100.00;99265.31;5576165;31;34392;-72
2023/04/25 02:15:48;;;;;;;;;;;;;;;10.52;100.00;99262.03;5589187;31;34654;-73
2023/04/25 02:18:52;;;;;;;;;;;;;;;10.53;100.00;99270.81;5589351;31;34459;-70
2023/04/25 02:21:56;;;;;;;;;;;;;;;10.51;100.00;99271.00;5589217;31;34660;-70
2023/04/25 02:25:00;;;;;;;;;;;;;;;10.57;100.00;99274.69;5589116;31;35166;-69
2023/04/25 02:28:03;;;;;;;;;;;;;;;10.56;100.00;99273.88;5589041;31;34489;-73
2023/04/25 02:31:06;;;;;;;;;;;;;;;10.54;100.00;99278.56;5589044;31;34577;-72
2023/04/25 02:34:08;;;;;;;;;;;;;;;10.58;100.00;99279.00;5588940;31;34459;-72
2023/04/25 02:37:12;;;;;;;;;;;;;;;10.56;100.00;99279.19;5588797;31;35192;-72
2023/04/25 02:40:14;;;;;;;;;;;;;;;10.57;100.00;99264.91;5591172;31;34612;-73
2023/04/25 02:43:17;;;;;;;;;;;;;;;10.59;100.00;99270.84;5591158;31;35053;-73
2023/04/25 02:46:19;;;;;;;;;;;;;;;10.58;100.00;99263.91;5591250;31;34340;-72
2023/04/25 02:49:40;;;;;;;;;;;;;;;10.62;100.00;99267.81;5590980;31;34572;-71
2023/04/25 02:52:43;;;;;;;;;;;;;;;10.63;100.00;99263.31;5591450;31;35025;-70
2023/04/25 02:55:46;;;;;;;;;;;;;;;10.61;100.00;99270.63;5591067;31;34468;-73
2023/04/25 02:58:49;;;;;;;;;;;;;;;10.58;100.00;99258.59;5590902;31;34385;-71
2023/04/25 03:01:51;;;;;;;;;;;;;;;10.58;100.00;99265.75;5591074;31;34623;-70
2023/04/25 03:04:54;;;;;;;;;;;;;;;10.59;100.00;99267.38;5590941;31;35028;-71
2023/04/25 03:07:56;;;;;;;;;;;;;;;10.57;100.00;99270.22;5590856;31;34201;-72
2023/04/25 03:10:59;;;;;;;;;;;;;;;10.63;100.00;99269.44;5577489;31;35015;-72
2023/04/25 03:14:02;;;;;;;;;;;;;;;10.49;100.00;99270.37;5590912;31;35163;-72
2023/04/25 03:17:05;;;;;;;;;;;;;;;10.45;100.00;99266.47;5590916;31;34418;-71
2023/04/25 03:20:10;;;;;;;;;;;;;;;10.48;100.00;99266.09;5590681;31;34565;-72
2023/04/25 03:23:12;;;;;;;;;;;;;;;10.43;100.00;99256.06;5577056;31;35065;-72
2023/04/25 03:26:15;;;;;;;;;;;;;;;10.37;100.00;99261.31;5590639;31;34313;-72
2023/04/25 03:29:18;;;;;;;;;;;;;;;10.30;100.00;99252.50;5591068;31;34494;-72
2023/04/25 03:32:21;;;;;;;;;;;;;;;10.27;100.00;99253.69;5590606;31;35128;-74
2023/04/25 03:35:24;;;;;;;;;;;;;;;10.23;100.00;99256.94;5590642;31;34476;-73
2023/04/25 03:38:27;;;;;;;;;;;;;;;10.24;100.00;99267.34;5590928;31;34337;-73
2023/04/25 03:41:30;;;;;;;;;;;;;;;10.17;100.00;99258.50;5590440;31;35071;-73
2023/04/25 03:44:34;;;;;;;;;;;;;;;10.11;100.00;99264.56;5590884;31;35102;-68
2023/04/25 03:47:37;;;;;;;;;;;;;;;10.17;100.00;99263.81;5590633;31;34522;-73
2023/04/25 03:50:39;;;;;;;;;;;;;;;10.06;100.00;99260.84;5590313;31;34407;-71
2023/04/25 03:53:42;;;;;;;;;;;;;;;10.02;100.00;99269.16;5590484;31;35109;-69
2023/04/25 03:56:49;;;;;;;;;;;;;;;10.09;100.00;99269.22;5590556;31;35202;-71
2023/04/25 03:59:52;;;;;;;;;;;;;;;9.89;100.00;99274.34;5576949;31;34419;-71
2023/04/25 04:02:55;;;;;;;;;;;;;;;9.87;100.00;99254.37;5590692;31;34461;-69
2023/04/25 04:05:59;;;;;;;;;;;;;;;9.87;100.00;99268.44;5590749;31;34395;-69
2023/04/25 04:09:03;;;;;;;;;;;;;;;9.87;100.00;99281.69;5590791;31;34393;-70
2023/04/25 04:12:06;;;;;;;;;;;;;;;9.84;100.00;99265.34;5590595;31;35105;-71
2023/04/25 04:15:10;;;;;;;;;;;;;;;9.75;100.00;99274.44;5590795;31;34366;-69
2023/04/25 04:18:13;;;;;;;;;;;;;;;9.74;100.00;99284.19;5590463;31;34621;-68
2023/04/25 04:21:15;;;;;;;;;;;;;;;9.70;100.00;99288.22;5590542;31;34831;-69
2023/04/25 04:24:19;;;;;;;;;;;;;;;9.67;100.00;99285.97;5590167;31;34361;-68
2023/04/25 04:27:22;;;;;;;;;;;;;;;9.64;100.00;99278.38;5589928;31;34604;-70
2023/04/25 04:30:25;;;;;;;;;;;;;;;9.67;100.00;99293.09;5589987;31;35116;-70
2023/04/25 04:33:32;;;;;;;;;;;;;;;9.70;100.00;99282.13;5590439;31;34430;-70
2023/04/25 04:36:35;;;;;;;;;;;;;;;9.66;100.00;99286.16;5576477;31;34987;-70
2023/04/25 04:39:37;;;;;;;;;;;;;;;9.63;100.00;99289.19;5590102;31;34584;-70
2023/04/25 04:42:42;;;;;;;;;;;;;;;9.63;100.00;99286.53;5590237;31;34432;-70
2023/04/25 04:45:44;;;;;;;;;;;;;;;9.58;100.00;99287.91;5590027;31;34441;-70
2023/04/25 04:48:47;;;;;;;;;;;;;;;9.59;100.00;99294.03;5589955;31;34565;-71
2023/04/25 04:51:50;;;;;;;;;;;;;;;9.60;100.00;99279.78;5576176;31;34649;-71
2023/04/25 04:54:54;;;;;;;;;;;;;;;9.56;100.00;99286.47;5589847;31;34978;-69
2023/04/25 04:57:56;;;;;;;;;;;;;;;9.63;100.00;99282.06;5589754;31;34402;-70
2023/04/25 05:00:59;;;;;;;;;;;;;;;9.61;100.00;99292.00;5589321;31;34715;-70
2023/04/25 05:04:03;;;;;;;;;;;;;;;9.49;100.00;99283.72;5589197;31;34428;-69
2023/04/25 05:07:07;;;;;;;;;;;;;;;9.46;100.00;99294.72;5590234;31;34510;-71
2023/04/25 05:10:13;;;;;;;;;;;;;;;9.40;100.00;99299.91;5590078;31;34449;-70
2023/04/25 05:13:16;;;;;;;;;;;;;;;9.17;100.00;99294.78;5589861;31;34455;-71
2023/04/25 05:16:19;;;;;;;;;;;;;;;9.14;100.00;99297.81;5589764;31;35088;-72
2023/04/25 05:19:23;;;;;;;;;;;;;;;9.02;100.00;99301.91;5589608;31;34511;-72
2023/04/25 05:22:26;;;;;;;;;;;;;;;9.00;100.00;99309.22;5589642;31;34254;-73
2023/04/25 05:25:28;;;;;;;;;;;;;;;8.91;100.00;99312.94;5589686;31;34636;-71
2023/04/25 05:28:31;;;;;;;;;;;;;;;8.89;100.00;99299.91;5589493;31;35154;-72
2023/04/25 05:31:35;;;;;;;;;;;;;;;8.79;100.00;99301.19;5589538;31;34532;-70
2023/04/25 05:34:39;;;;;;;;;;;;;;;8.80;100.00;99297.56;5589449;31;34479;-74
2023/04/25 05:37:43;;;;;;;;;;;;;;;8.71;100.00;99300.25;5589731;31;34243;-72
2023/04/25 05:40:45;;;;;;;;;;;;;;;8.61;100.00;99304.19;5589586;31;34462;-75
2023/04/25 05:43:50;;;;;;;;;;;;;;;8.49;100.00;99305.63;5588667;31;35137;-76
2023/04/25 05:46:55;;;;;;;;;;;;;;;8.39;100.00;99299.78;5589248;31;34422;-73
2023/04/25 05:50:02;;;;;;;;;;;;;;;8.35;100.00;99304.62;5575377;31;34503;-77
2023/04/25 05:53:05;;;;;;;;;;;;;;;8.36;100.00;99293.06;5589090;31;34401;-75
2023/04/25 05:56:08;;;;;;;;;;;;;;;8.27;100.00;99313.41;5589084;31;34417;-75
2023/04/25 05:59:11;;;;;;;;;;;;;;;8.21;100.00;99315.94;5588939;31;35068;-76
2023/04/25 06:02:13;;;;;;;;;;;;;;;8.20;100.00;99315.13;5589128;31;34426;-75
2023/04/25 06:05:16;;;;;;;;;;;;;;;8.21;100.00;99314.13;5588743;31;35184;-74
2023/04/25 06:08:20;;;;;;;;;;;;;;;8.16;100.00;99311.19;5575382;31;35005;-75
2023/04/25 06:11:22;;;;;;;;;;;;;;;8.15;100.00;99317.47;5589081;31;34446;-75
2023/04/25 06:14:24;;;;;;;;;;;;;;;8.22;100.00;99314.94;5588228;31;34471;-75
2023/04/25 06:17:31;;;;;;;;;;;;;;;8.21;100.00;99319.41;5589003;31;34452;-77
2023/04/25 06:20:34;;;;;;;;;;;;;;;8.19;100.00;99313.47;5589513;31;35155;-76
2023/04/25 06:23:37;;;;;;;;;;;;;;;8.30;100.00;99330.75;5588939;31;34470;-77
2023/04/25 06:26:39;;;;;;;;;;;;;;;8.40;100.00;99326.03;5588766;31;32863;-72
2023/04/25 06:29:42;;;;;;;;;;;;;;;8.42;100.00;99333.81;5588803;31;34892;-77
2023/04/25 06:32:45;;;;;;;;;;;;;;;8.48;100.00;99331.25;5588673;31;35023;-73
2023/04/25 06:35:48;;;;;;;;;;;;;;;8.54;100.00;99330.53;5588533;31;34475;-74
2023/04/25 06:38:52;;;;;;;;;;;;;;;8.65;100.00;99337.19;5588515;31;34512;-72
2023/04/25 06:41:55;;;;;;;;;;;;;;;8.68;100.00;99324.44;5588638;31;34391;-74
2023/04/25 06:45:04;;;;;;;;;;;;;;;8.70;100.00;99318.97;5588898;31;34434;-76
2023/04/25 06:48:10;;;;;;;;;;;;;;;8.88;100.00;99331.81;5583842;31;142505;-75
2023/04/25 06:51:13;;;;;;;;;;;;;;;8.91;100.00;99326.16;5588961;31;34508;-73
2023/04/25 06:54:16;;;;;;;;;;;;;;;8.95;100.00;99332.75;5588342;31;35092;-74
2023/04/25 06:57:20;;;;;;;;;;;;;;;9.05;100.00;99328.81;5573534;31;34316;-76
2023/04/25 07:00:23;;;;;;;;;;;;;;;9.07;100.00;99329.44;5574336;31;32819;-73
2023/04/25 07:03:25;;;;;;;;;;;;;;;9.28;100.00;99331.34;5588334;31;33840;-76
2023/04/25 07:06:29;;;;;;;;;;;;;;;9.19;100.00;99323.69;5588224;31;34495;-74
2023/04/25 07:09:33;;;;;;;;;;;;;;;9.34;100.00;99327.97;5589240;31;35135;-73
2023/04/25 07:12:36;;;;;;;;;;;;;;;9.33;100.00;99333.44;5588241;31;34586;-73
2023/04/25 07:15:39;;;;;;;;;;;;;;;9.58;100.00;99335.56;5588458;31;34462;-73
2023/04/25 07:18:42;;;;;;;;;;;;;;;9.69;100.00;99326.31;5588054;31;34401;-75
2023/04/25 07:21:44;;;;;;;;;;;;;;;9.81;100.00;99330.13;5574314;31;34523;-73
2023/04/25 07:24:48;;;;;;;;;;;;;;;10.13;100.00;99328.78;5587985;31;34437;-74
2023/04/25 07:27:54;;;;;;;;;;;;;;;10.60;100.00;99332.69;5590964;31;35057;-73
2023/04/25 07:30:57;;;;;;;;;;;;;;;10.89;100.00;99335.91;5590666;31;34985;-72
2023/04/25 07:34:00;;;;;;;;;;;;;;;10.75;100.00;99336.03;5591234;31;34471;-72
2023/04/25 07:37:04;;;;;;;;;;;;;;;10.94;100.00;99335.31;5590740;31;35100;-73
2023/04/25 07:40:09;;;;;;;;;;;;;;;10.76;100.00;99340.31;5591050;31;34399;-72
2023/04/25 07:43:16;;;;;;;;;;;;;;;11.10;100.00;99339.50;5590478;31;34457;-73
2023/04/25 07:46:19;;;;;;;;;;;;;;;11.32;100.00;99344.53;5590245;31;34553;-71
2023/04/25 07:49:22;;;;;;;;;;;;;;;11.26;100.00;99340.00;5590140;31;35002;-72
2023/04/25 07:52:24;;;;;;;;;;;;;;;11.74;100.00;99345.31;5590561;31;34497;-72
2023/04/25 07:55:27;;;;;;;;;;;;;;;11.85;100.00;99357.19;5590307;31;35194;-72
2023/04/25 07:58:30;;;;;;;;;;;;;;;11.67;100.00;99347.09;5590681;31;35158;-72
2023/04/25 08:01:33;;;;;;;;;;;;;;;11.70;100.00;99358.16;5590648;31;34372;-72
2023/04/25 08:04:36;;;;;;;;;;;;;;;12.02;100.00;99345.16;5590428;31;35149;-72
2023/04/25 08:07:40;;;;;;;;;;;;;;;12.56;100.00;99345.81;5590370;31;34348;-70
2023/04/25 08:10:42;;;;;;;;;;;;;;;12.17;100.00;99348.47;5590395;31;34955;-70
2023/04/25 08:13:45;;;;;;;;;;;;;;;12.74;100.00;99370.97;5590137;31;34489;-72
2023/04/25 08:16:48;;;;;;;;;;;;;;;12.50;100.00;99356.44;5590377;31;34588;-72
2023/04/25 08:19:51;;;;;;;;;;;;;;;12.71;100.00;99356.25;5590257;31;34382;-72
2023/04/25 08:22:54;;;;;;;;;;;;;;;12.80;100.00;99359.50;5590170;31;34455;-71
2023/04/25 08:25:57;;;;;;;;;;;;;;;12.70;100.00;99354.59;5590276;31;34332;-72
2023/04/25 08:29:01;;;;;;;;;;;;;;;13.00;100.00;99350.47;5590420;31;34454;-71
2023/04/25 08:32:03;;;;;;;;;;;;;;;13.00;100.00;99353.13;5590008;31;34592;-68
2023/04/25 08:35:07;;;;;;;;;;;;;;;12.76;100.00;99351.13;5590033;31;34407;-70
2023/04/25 08:38:10;;;;;;;;;;;;;;;12.68;100.00;99351.34;5589843;31;34406;-70
2023/04/25 08:41:13;;;;;;;;;;;;;;;13.04;100.00;99346.34;5589875;31;34323;-70
2023/04/25 08:44:16;;;;;;;;;;;;;;;12.53;100.00;99353.41;5589911;31;34517;-71
2023/04/25 08:47:21;;;;;;;;;;;;;;;12.54;100.00;99371.78;5589889;31;34495;-72
2023/04/25 08:50:26;;;;;;;;;;;;;;;12.27;100.00;99366.66;5589989;31;34461;-70
2023/04/25 08:53:30;;;;;;;;;;;;;;;12.54;100.00;99371.78;5589896;31;34362;-70
2023/04/25 08:56:34;;;;;;;;;;;;;;;12.56;100.00;99377.75;5589781;31;34398;-72
2023/04/25 08:59:39;;;;;;;;;;;;;;;12.43;100.00;99374.25;5589687;31;35123;-69
2023/04/25 09:02:42;;;;;;;;;;;;;;;12.26;100.00;99380.97;5589997;31;34385;-70
2023/04/25 09:05:46;;;;;;;;;;;;;;;12.50;100.00;99381.22;5589666;31;34942;-71
2023/04/25 09:08:50;;;;;;;;;;;;;;;12.36;100.00;99371.59;5589760;31;34403;-73
2023/04/25 09:11:54;;;;;;;;;;;;;;;12.97;100.00;99377.47;5590436;31;34685;-70
2023/04/25 09:15:08;;;;;;;;;;;;;;;13.23;100.00;99374.00;5589763;31;34361;-71
2023/04/25 09:18:13;;;;;;;;;;;;;;;13.53;100.00;99376.97;5589912;31;34424;-70
2023/04/25 09:21:16;;;;;;;;;;;;;;;13.51;100.00;99384.34;5589844;31;34602;-68
2023/04/25 09:24:32;;;;;;;;;;;;;;;13.39;100.00;99386.84;5589578;31;34962;-70
2023/04/25 09:27:34;;;;;;;;;;;;;;;12.87;100.00;99384.28;5589405;31;34423;-71
2023/04/25 09:30:37;;;;;;;;;;;;;;;13.81;100.00;99384.63;5575580;31;34473;-70
2023/04/25 09:33:40;;;;;;;;;;;;;;;13.72;100.00;99364.59;5589841;31;35137;-70
2023/04/25 09:36:44;;;;;;;;;;;;;;;13.58;100.00;99363.00;5589985;31;35000;-70
2023/04/25 09:39:52;;;;;;;;;;;;;;;13.90;100.00;99362.84;5589663;31;34955;-71
2023/04/25 09:42:55;;;;;;;;;;;;;;;14.56;98.18;99366.94;5590498;31;34418;-69
2023/04/25 09:46:00;;;;;;;;;;;;;;;15.34;91.45;99377.91;5576994;31;34709;-67
2023/04/25 09:49:06;;;;;;;;;;;;;;;16.94;81.34;99385.13;5588361;31;34621;-72
2023/04/25 09:52:15;;;;;;;;;;;;;;;15.59;83.83;99374.09;5589750;31;34616;-70
2023/04/25 09:55:19;;;;;;;;;;;;;;;15.02;84.35;99371.84;5589819;31;34467;-72
2023/04/25 09:58:24;;;;;;;;;;;;;;;14.54;89.97;99374.34;5589321;31;34504;-72
2023/04/25 10:01:28;;;;;;;;;;;;;;;14.49;86.47;99360.81;5589332;31;35014;-71
2023/04/25 10:04:35;;;;;;;;;;;;;;;14.88;87.26;99373.00;5575994;31;35039;-72
2023/04/25 10:07:38;;;;;;;;;;;;;;;15.39;83.25;99376.19;5589355;31;34406;-72
2023/04/25 10:10:43;;;;;;;;;;;;;;;15.03;82.91;99370.81;5590737;31;33953;-75
2023/04/25 10:13:47;;;;;;;;;;;;;;;14.66;84.53;99365.41;5588854;31;34452;-73
2023/04/25 10:16:53;;;;;;;;;;;;;;;14.42;82.49;99384.09;5589093;31;35049;-72
2023/04/25 10:19:56;;;;;;;;;;;;;;;13.66;85.67;99365.41;5589549;31;34405;-72
2023/04/25 10:23:10;;;;;;;;;;;;;;;13.64;89.99;99373.66;5589036;31;34709;-72
2023/04/25 10:26:14;;;;;;;;;;;;;;;13.71;85.49;99369.09;5588887;31;34508;-72
2023/04/25 10:29:26;;;;;;;;;;;;;;;14.41;84.34;99369.94;5588498;31;34345;-72
2023/04/25 10:32:30;;;;;;;;;;;;;;;13.65;84.79;99377.94;5588807;31;35169;-71
2023/04/25 10:35:33;;;;;;;;;;;;;;;13.56;84.78;99363.22;5575008;31;34423;-72
2023/04/25 10:38:36;;;;;;;;;;;;;;;13.53;85.74;99368.16;5588785;31;34412;-71
2023/04/25 10:41:46;;;;;;;;;;;;;;;13.68;84.06;99364.19;5588804;31;34707;-70
2023/04/25 10:45:05;;;;;;;;;;;;;;;14.10;78.32;99364.56;5588404;31;35144;-72
2023/04/25 10:48:27;;;;;;;;;;;;;;;14.53;78.52;99378.84;5588626;31;34497;-73
2023/04/25 10:51:31;;;;;;;;;;;;;;;14.26;79.32;99375.53;5588673;31;34570;-69
2023/04/25 10:54:56;;;;;;;;;;;;;;;14.75;74.40;99384.63;5588343;31;34425;-70
2023/04/25 10:58:00;;;;;;;;;;;;;;;16.16;66.25;99382.63;5588054;31;34624;-72
2023/04/25 11:01:03;;;;;;;;;;;;;;;16.02;65.77;99378.50;5589456;31;34458;-72
2023/04/25 11:04:05;;;;;;;;;;;;;;;16.39;64.20;99388.03;5590883;31;35040;-69
2023/04/25 11:07:22;;;;;;;;;;;;;;;15.82;63.27;99396.69;5590742;31;34453;-70
2023/04/25 11:10:25;;;;;;;;;;;;;;;15.55;66.76;99393.50;5591083;31;32443;-71
2023/04/25 11:13:29;;;;;;;;;;;;;;;16.64;59.28;99398.59;5576716;31;34630;-73
2023/04/25 11:16:32;;;;;;;;;;;;;;;15.73;60.45;99398.84;5590765;31;35068;-73
2023/04/25 11:19:34;;;;;;;;;;;;;;;14.60;65.01;99395.66;5577161;31;34582;-69
2023/04/25 11:22:38;;;;;;;;;;;;;;;15.33;63.82;99402.97;5590466;31;34453;-71
2023/04/25 11:25:42;;;;;;;;;;;;;;;15.93;63.44;99401.25;5590514;31;34487;-72
2023/04/25 11:28:48;;;;;;;;;;;;;;;15.01;61.75;99399.59;5590604;31;34716;-71
2023/04/25 11:31:52;;;;;;;;;;;;;;;16.18;61.20;99411.81;5590298;31;34828;-73
2023/04/25 11:34:54;;;;;;;;;;;;;;;16.98;57.45;99407.72;5590219;31;34491;-72
2023/04/25 11:37:57;;;;;;;;;;;;;;;18.78;52.33;99405.41;5590563;31;34430;-72
2023/04/25 11:40:59;;;;;;;;;;;;;;;17.85;54.00;99405.03;5590306;31;34521;-72
2023/04/25 11:44:05;;;;;;;;;;;;;;;17.94;55.37;99411.66;5590448;31;34594;-72
2023/04/25 11:47:07;;;;;;;;;;;;;;;16.24;56.52;99406.37;5590468;31;34542;-69
2023/04/25 11:50:10;;;;;;;;;;;;;;;15.74;58.74;99408.47;5591816;31;34438;-72
2023/04/25 11:53:13;;;;;;;;;;;;;;;15.43;59.76;99411.28;5590573;31;34355;-71
2023/04/25 11:56:15;;;;;;;;;;;;;;;14.68;60.22;99408.72;5590327;31;34476;-71
2023/04/25 11:59:22;;;;;;;;;;;;;;;14.18;61.53;99418.50;5576476;31;35075;-73
2023/04/25 12:02:26;;;;;;;;;;;;;;;14.63;58.64;99415.72;5590609;31;34437;-72
2023/04/25 12:05:30;;;;;;;;;;;;;;;14.75;58.80;99420.16;5589831;31;35276;-73
2023/04/25 12:08:35;;;;;;;;;;;;;;;15.02;56.36;99433.28;5590153;31;34437;-71
2023/04/25 12:11:45;;;;;;;;;;;;;;;14.83;56.50;99420.91;5576012;31;34488;-69
2023/04/25 12:14:48;;;;;;;;;;;;;;;15.11;59.67;99435.44;5590375;31;34376;-73
2023/04/25 12:17:52;;;;;;;;;;;;;;;15.24;60.01;99429.19;5590311;31;34501;-73
2023/04/25 12:20:55;;;;;;;;;;;;;;;15.77;59.23;99432.13;5590224;31;34594;-69
2023/04/25 12:24:08;;;;;;;;;;;;;;;17.62;53.47;99438.91;5590676;31;34590;-72
2023/04/25 12:27:15;;;;;;;;;;;;;;;20.04;46.25;99425.16;5590146;31;34513;-72
2023/04/25 12:30:19;;;;;;;;;;;;;;;19.82;45.47;99433.25;5590112;31;34412;-73
2023/04/25 12:33:21;;;;;;;;;;;;;;;20.79;43.66;99429.69;5590615;31;34492;-72
2023/04/25 12:36:24;;;;;;;;;;;;;;;22.77;38.88;99424.13;5576730;31;34377;-73
2023/04/25 12:39:26;;;;;;;;;;;;;;;23.22;37.32;99428.69;5590041;31;34308;-71
2023/04/25 12:42:29;;;;;;;;;;;;;;;24.62;36.83;99417.50;5589270;31;35075;-70
2023/04/25 12:45:32;;;;;;;;;;;;;;;26.05;31.88;99428.53;5575550;31;34366;-69
2023/04/25 12:48:35;;;;;;;;;;;;;;;25.39;32.55;99404.88;5589748;31;35052;-72
2023/04/25 12:51:37;;;;;;;;;;;;;;;22.30;35.66;99388.38;5590000;31;35086;-72
2023/04/25 12:54:40;;;;;;;;;;;;;;;22.56;36.07;99398.13;5590072;31;34512;-73
2023/04/25 12:57:43;;;;;;;;;;;;;;;23.28;35.37;99389.72;5589884;31;34453;-72
2023/04/25 13:00:46;;;;;;;;;;;;;;;24.61;32.80;99396.91;5590143;31;34036;-72
2023/04/25 13:03:48;;;;;;;;;;;;;;;25.31;32.50;99393.84;5589764;31;34486;-71
2023/04/25 13:06:51;;;;;;;;;;;;;;;25.03;31.45;99409.03;5589664;31;34534;-72
2023/04/25 13:09:54;;;;;;;;;;;;;;;25.35;30.50;99398.41;5589455;31;34359;-71
2023/04/25 13:12:57;;;;;;;;;;;;;;;26.15;28.88;99390.34;5575981;31;34391;-72
2023/04/25 13:16:03;;;;;;;;;;;;;;;26.72;27.31;99386.50;5589818;31;34549;-73
2023/04/25 13:19:08;;;;;;;;;;;;;;;26.95;28.56;99392.94;5589948;31;34495;-72
2023/04/25 13:22:10;;;;;;;;;;;;;;;25.32;29.79;99385.41;5589053;31;35141;-72
2023/04/25 13:25:13;;;;;;;;;;;;;;;24.31;30.99;99382.75;5589124;31;35091;-72
2023/04/25 13:28:15;;;;;;;;;;;;;;;27.14;27.34;99382.81;5589134;31;35071;-72
2023/04/25 13:31:19;;;;;;;;;;;;;;;24.97;28.27;99375.75;5589123;31;34309;-74
2023/04/25 13:34:21;;;;;;;;;;;;;;;24.12;30.19;99367.13;5589607;31;34656;-72
2023/04/25 13:37:24;;;;;;;;;;;;;;;23.85;29.82;99357.81;5589363;31;34391;-73
2023/04/25 13:40:26;;;;;;;;;;;;;;;25.08;27.85;99363.66;5589116;31;34402;-71
2023/04/25 13:43:29;;;;;;;;;;;;;;;22.34;30.48;99362.44;5589319;31;35146;-71
2023/04/25 13:46:32;;;;;;;;;;;;;;;21.90;31.76;99357.47;5575479;31;34428;-72
2023/04/25 13:49:48;;;;;;;;;;;;;;;22.02;31.11;99368.06;5589089;31;34357;-70
2023/04/25 13:52:50;;;;;;;;;;;;;;;21.47;31.85;99361.37;5588983;31;34397;-71
2023/04/25 13:55:53;;;;;;;;;;;;;;;23.40;28.77;99363.13;5589058;31;34390;-71
2023/04/25 13:58:56;;;;;;;;;;;;;;;23.66;28.90;99368.47;5589161;31;35078;-73
2023/04/25 14:01:59;;;;;;;;;;;;;;;22.94;30.33;99364.34;5575198;31;34595;-71
2023/04/25 14:05:03;;;;;;;;;;;;;;;25.29;27.10;99366.16;5589207;31;34592;-72
2023/04/25 14:08:06;;;;;;;;;;;;;;;24.04;28.01;99367.75;5589027;31;34386;-70
2023/04/25 14:11:10;;;;;;;;;;;;;;;23.72;28.92;99362.75;5588288;31;34561;-72
2023/04/25 14:14:16;;;;;;;;;;;;;;;21.50;30.87;99362.72;5588902;31;33203;-73
2023/04/25 14:17:19;;;;;;;;;;;;;;;19.81;34.60;99353.56;5588543;31;34954;-71
2023/04/25 14:20:23;;;;;;;;;;;;;;;20.97;32.65;99361.88;5588643;31;34503;-70
2023/04/25 14:23:26;;;;;;;;;;;;;;;18.86;37.08;99350.41;5588890;31;34991;-71
2023/04/25 14:26:28;;;;;;;;;;;;;;;18.52;37.10;99354.97;5588770;31;34497;-71
2023/04/25 14:29:31;;;;;;;;;;;;;;;17.99;38.44;99356.22;5587931;31;34448;-70
2023/04/25 14:32:33;;;;;;;;;;;;;;;17.30;39.23;99349.16;5587826;31;34493;-71
2023/04/25 14:35:36;;;;;;;;;;;;;;;16.92;41.53;99355.88;5588068;31;34446;-72
2023/04/25 14:38:39;;;;;;;;;;;;;;;16.22;42.44;99364.81;5588401;31;35010;-70
2023/04/25 14:41:41;;;;;;;;;;;;;;;16.36;41.95;99358.25;5588764;31;34402;-71
2023/04/25 14:44:44;;;;;;;;;;;;;;;16.18;41.50;99358.28;5588484;31;34397;-72
2023/04/25 14:47:47;;;;;;;;;;;;;;;16.26;43.13;99342.75;5588483;31;35112;-72
2023/04/25 14:50:50;;;;;;;;;;;;;;;16.06;43.59;99352.94;5574056;31;35173;-72
2023/04/25 14:53:53;;;;;;;;;;;;;;;15.96;43.14;99353.47;5588269;31;35052;-71
2023/04/25 14:56:56;;;;;;;;;;;;;;;16.01;43.14;99339.41;5588024;31;34683;-71
2023/04/25 14:59:59;;;;;;;;;;;;;;;15.76;44.12;99341.41;5588198;31;34344;-71
2023/04/25 15:03:02;;;;;;;;;;;;;;;15.88;43.05;99345.75;5587958;31;34540;-73
2023/04/25 15:06:06;;;;;;;;;;;;;;;15.57;43.46;99349.47;5574052;31;34497;-70
2023/04/25 15:09:10;;;;;;;;;;;;;;;15.42;45.53;99364.22;5587825;31;35195;-72
2023/04/25 15:12:13;;;;;;;;;;;;;;;15.70;42.56;99361.03;5588130;31;34449;-72
2023/04/25 15:15:16;;;;;;;;;;;;;;;15.65;43.86;99359.84;5587869;31;35156;-70
2023/04/25 15:18:27;;;;;;;;;;;;;;;15.51;43.59;99350.38;5575462;31;35023;-71
2023/04/25 15:21:30;;;;;;;;;;;;;;;15.49;44.23;99364.97;5587252;31;34967;-72
2023/04/25 15:24:33;;;;;;;;;;;;;;;15.41;44.58;99362.59;5572974;31;35105;-72
2023/04/25 15:27:39;;;;;;;;;;;;;;;15.30;43.23;99358.00;5587101;31;34493;-72
2023/04/25 15:30:43;;;;;;;;;;;;;;;15.38;45.00;99355.84;5587510;31;34448;-71
2023/04/25 15:33:45;;;;;;;;;;;;;;;15.44;43.56;99354.13;5587852;31;34599;-71
2023/04/25 15:36:48;;;;;;;;;;;;;;;15.46;44.36;99354.72;5587648;31;34306;-73
2023/04/25 15:40:00;;;;;;;;;;;;;;;15.20;44.40;99359.31;5587241;31;34409;-72
2023/04/25 15:43:03;;;;;;;;;;;;;;;15.09;44.73;99357.41;5573802;31;34378;-71
2023/04/25 15:46:05;;;;;;;;;;;;;;;15.08;45.23;99360.28;5587992;31;34250;-72
2023/04/25 15:49:09;;;;;;;;;;;;;;;15.07;47.61;99361.31;5590292;31;35011;-72
2023/04/25 15:52:12;;;;;;;;;;;;;;;15.18;46.04;99372.09;5590556;31;35035;-70